Utopia, Texas
Current Conditions -  °F | °C
As of 5:13 AM on Friday 19 Dec 2014 (Local Time) from KHDO Reporting Station
Overcast Overcast  
Wind Chill: 54°   Ceiling: 700
Heat Index: 54°   Visibility: 7mi
Dew Point: 52°   Wind: 13mph
Humidity: 93%   Direction: 10°N
Pressure: 30.04"   Gusts: NA
Location:  29.62°N, 99.53°W
Report Text: KHDO 191113Z AUTO 01011KT 7SM OVC007 12/11 A3004 RMK AO2 CIG 006V012 T01220111
Loading
Personal Weather Stations






























Interactive Weather Map New forecast layout! Learn more

10-Day Weather Forecast

Advertisements
Track Severe Weather on mobile